createdAt,value
2022-10-17T17:50:17.617Z,12.76
2022-10-17T17:52:46.450Z,12.72
2022-10-17T17:55:13.220Z,12.69
2022-10-17T17:57:39.894Z,12.66
2022-10-17T18:00:07.301Z,12.62
2022-10-17T18:02:36.419Z,12.55
2022-10-17T18:05:05.613Z,12.47
2022-10-17T18:07:32.297Z,12.45
2022-10-17T18:09:59.042Z,12.42
2022-10-17T18:12:25.706Z,12.36
2022-10-17T18:14:52.448Z,12.32
2022-10-17T18:17:19.157Z,12.30
2022-10-17T18:19:45.841Z,12.25
2022-10-17T18:22:12.446Z,12.23
2022-10-17T18:24:39.158Z,12.17
2022-10-17T18:27:05.945Z,12.14
2022-10-17T18:29:32.903Z,12.09
2022-10-17T18:32:00.008Z,12.09
2022-10-17T18:34:27.356Z,12.08
2022-10-17T18:36:54.820Z,12.04
2022-10-17T18:39:21.640Z,12.02
2022-10-17T18:41:48.374Z,11.99
2022-10-17T18:44:16.894Z,11.97
2022-10-17T18:49:15.730Z,11.91
2022-10-17T18:51:42.675Z,11.87
2022-10-17T18:54:16.785Z,11.86
2022-10-17T18:56:45.034Z,11.85
2022-10-17T18:59:11.695Z,11.81
2022-10-17T19:01:38.714Z,11.77
2022-10-17T19:04:05.383Z,11.74
2022-10-17T19:06:32.752Z,11.70
2022-10-17T19:09:00.743Z,11.67
2022-10-17T19:11:29.116Z,11.66
2022-10-17T19:14:01.320Z,11.61
2022-10-17T19:16:36.824Z,11.61
2022-10-17T19:19:11.629Z,11.59
2022-10-17T19:21:38.412Z,11.56
2022-10-17T19:24:07.799Z,11.54
2022-10-17T19:26:36.766Z,11.50
2022-10-17T19:29:04.820Z,11.47
2022-10-17T19:31:32.930Z,11.43
2022-10-17T19:34:00.264Z,11.38
2022-10-17T19:36:32.442Z,11.35
2022-10-17T19:39:05.715Z,11.32
2022-10-17T19:41:33.196Z,11.32
2022-10-17T19:44:00.601Z,11.28
2022-10-17T19:46:28.729Z,11.24
2022-10-17T19:48:55.979Z,11.22
2022-10-17T19:51:24.631Z,11.19
2022-10-17T19:53:52.875Z,11.18
2022-10-17T19:56:21.205Z,11.15
2022-10-17T19:58:49.330Z,11.13
2022-10-17T20:01:20.753Z,11.07
2022-10-17T20:03:47.743Z,11.00
2022-10-17T20:06:15.167Z,10.96
2022-10-17T20:08:42.177Z,10.97
2022-10-17T20:11:13.175Z,10.97
2022-10-17T20:13:41.023Z,10.96
2022-10-17T20:16:11.744Z,10.94
2022-10-17T20:18:40.612Z,10.87
2022-10-17T20:21:11.860Z,10.81
2022-10-17T20:23:39.822Z,10.76
2022-10-17T20:26:26.093Z,10.71
2022-10-17T20:28:58.068Z,10.66
2022-10-17T20:31:24.858Z,10.65
2022-10-17T20:33:59.427Z,10.64
2022-10-17T20:36:27.114Z,10.60
2022-10-17T20:38:55.580Z,10.58
2022-10-17T20:41:23.614Z,10.53
2022-10-17T20:43:51.894Z,10.49
2022-10-17T20:46:36.369Z,10.47
2022-10-17T20:49:08.184Z,10.42
2022-10-17T20:51:36.126Z,10.42
2022-10-17T20:54:03.378Z,10.37
2022-10-17T20:56:32.072Z,10.37
2022-10-17T20:59:05.600Z,10.33
2022-10-17T21:01:33.838Z,10.29
2022-10-17T21:04:21.223Z,10.27
2022-10-17T21:06:48.416Z,10.22
2022-10-17T21:09:15.150Z,10.19
2022-10-17T21:11:43.193Z,10.14
2022-10-17T21:14:11.144Z,10.12
2022-10-17T21:16:39.697Z,10.11
2022-10-17T21:19:06.524Z,10.08
2022-10-17T21:21:35.898Z,10.04
2022-10-17T21:24:06.043Z,10.00
2022-10-17T21:26:34.729Z,9.94
2022-10-17T21:29:06.070Z,9.92
2022-10-17T21:31:34.971Z,9.91
2022-10-17T21:34:09.987Z,9.90
2022-10-17T21:36:36.998Z,9.93
2022-10-17T21:39:04.634Z,9.95
2022-10-17T21:41:31.798Z,9.96
2022-10-17T21:44:06.642Z,9.92
2022-10-17T21:46:34.245Z,9.92
2022-10-17T21:49:01.010Z,9.90
2022-10-17T21:51:28.287Z,9.86
2022-10-17T21:53:56.782Z,9.80
2022-10-17T21:56:28.225Z,9.78
2022-10-17T21:58:55.615Z,9.74
2022-10-17T22:01:25.234Z,9.75
2022-10-17T22:03:54.235Z,9.70
2022-10-17T22:06:40.660Z,9.65
2022-10-17T22:09:12.525Z,9.60
2022-10-17T22:11:39.337Z,9.58
2022-10-17T22:14:14.535Z,9.57
2022-10-17T22:16:41.857Z,9.56
2022-10-17T22:19:11.975Z,9.51
2022-10-17T22:21:39.090Z,9.47
2022-10-17T22:24:09.094Z,9.45
2022-10-17T22:26:37.573Z,9.45
2022-10-17T22:29:05.848Z,9.44
2022-10-17T22:31:32.928Z,9.41
2022-10-17T22:34:00.799Z,9.40
2022-10-17T22:36:27.714Z,9.35
2022-10-17T22:38:54.351Z,9.28
2022-10-17T22:41:21.033Z,9.29
2022-10-17T22:43:51.166Z,9.28
2022-10-17T22:46:17.992Z,9.25
2022-10-17T22:48:44.833Z,9.25
2022-10-17T22:51:11.889Z,9.21
2022-10-17T22:53:38.686Z,9.19
2022-10-17T22:56:11.526Z,9.18
2022-10-17T22:58:40.124Z,9.14
2022-10-17T23:01:08.884Z,9.11
2022-10-17T23:03:36.053Z,9.06
2022-10-17T23:06:03.218Z,8.97
2022-10-17T23:08:30.485Z,8.92
2022-10-17T23:10:57.734Z,8.93
2022-10-17T23:13:24.488Z,8.91
2022-10-17T23:15:55.448Z,8.89
2022-10-17T23:18:23.458Z,8.87
2022-10-17T23:20:50.367Z,8.87
2022-10-17T23:23:17.747Z,8.86
2022-10-17T23:25:44.447Z,8.86
2022-10-17T23:28:11.669Z,8.86
2022-10-17T23:30:39.227Z,8.90
2022-10-17T23:33:06.514Z,8.92
2022-10-17T23:35:33.866Z,8.90
2022-10-17T23:38:00.533Z,8.89
2022-10-17T23:40:28.130Z,8.83
2022-10-17T23:42:54.821Z,8.82
2022-10-17T23:45:21.949Z,8.75
2022-10-17T23:47:48.667Z,8.72
2022-10-17T23:50:16.419Z,8.70
2022-10-17T23:52:43.158Z,8.68
2022-10-17T23:55:10.466Z,8.64
2022-10-17T23:57:37.170Z,8.63
